Time;durP1;ratioP1;P1;durP2;ratioP2;P2;SDS_P1;SDS_P2;PMS_P1;PMS_P2;Temp;Humidity;BMP_temperature;BMP_pressure;BME280_temperature;BME280_humidity;BME280_pressure;Samples;Min_cycle;Max_cycle;Signal;HPM_P1;HPM_P2
2022/06/08 00:01:22;;;;;;;0.80;0.80;;;20.60;64.40;;;;;;5086061;28;20523;-48
2022/06/08 00:04:04;;;;;;;2.93;0.80;;;20.60;64.40;;;;;;5083580;28;20746;-48
2022/06/08 00:06:45;;;;;;;0.90;0.90;;;20.60;64.40;;;;;;5068605;27;20632;-46
2022/06/08 00:09:26;;;;;;;0.80;0.80;;;20.60;64.40;;;;;;5087462;28;20519;-49
2022/06/08 00:12:08;;;;;;;0.57;0.57;;;20.60;64.40;;;;;;5120881;27;20581;-48
2022/06/08 00:14:48;;;;;;;1.33;0.60;;;20.60;64.40;;;;;;5149646;27;20922;-47
2022/06/08 00:17:28;;;;;;;1.27;0.67;;;20.60;64.40;;;;;;5071346;28;20593;-47
2022/06/08 00:20:10;;;;;;;0.60;0.60;;;20.60;64.50;;;;;;5083463;28;20534;-47
2022/06/08 00:22:53;;;;;;;0.90;0.90;;;20.60;64.40;;;;;;5065914;28;20763;-48
2022/06/08 00:25:34;;;;;;;0.80;0.80;;;20.60;64.40;;;;;;5084594;27;20527;-49
2022/06/08 00:28:16;;;;;;;1.60;0.90;;;20.50;64.30;;;;;;5083548;27;20616;-50
2022/06/08 00:30:57;;;;;;;0.80;0.80;;;20.60;64.40;;;;;;5087319;28;20523;-47
2022/06/08 00:33:39;;;;;;;0.60;0.57;;;20.60;64.50;;;;;;5068130;27;20548;-48
2022/06/08 00:36:20;;;;;;;0.93;0.70;;;20.60;64.40;;;;;;5124613;27;20582;-48
2022/06/08 00:39:00;;;;;;;0.97;0.97;;;20.50;64.30;;;;;;5116184;27;20537;-49
2022/06/08 00:41:49;;;;;;;2.20;0.83;;;20.60;64.40;;;;;;5070681;28;20764;-48
2022/06/08 00:44:40;;;;;;;0.70;0.70;;;20.60;64.40;;;;;;5042325;28;20998;-48
2022/06/08 00:47:30;;;;;;;2.03;0.70;;;20.60;64.40;;;;;;5046896;28;20505;-47
2022/06/08 00:50:23;;;;;;;1.17;1.07;;;20.50;64.30;;;;;;5042618;28;20438;-50
2022/06/08 00:53:12;;;;;;;1.20;1.10;;;20.50;64.30;;;;;;5046671;28;20838;-47
2022/06/08 00:56:03;;;;;;;0.90;0.83;;;20.50;64.30;;;;;;5045548;28;20444;-46
2022/06/08 00:58:50;;;;;;;0.80;0.80;;;20.50;64.40;;;;;;5046082;28;20470;-49
2022/06/08 01:01:36;;;;;;;1.03;0.90;;;20.50;64.30;;;;;;5045124;28;20583;-47
2022/06/08 01:04:24;;;;;;;1.13;1.03;;;20.50;64.40;;;;;;5045389;28;20965;-48
2022/06/08 01:07:18;;;;;;;1.00;0.90;;;20.50;64.30;;;;;;5052436;28;20467;-48
2022/06/08 01:10:06;;;;;;;0.80;0.80;;;20.50;64.30;;;;;;5044824;28;20450;-48
2022/06/08 01:12:54;;;;;;;1.50;0.60;;;20.50;65.50;;;;;;5056200;28;20509;-48
2022/06/08 01:15:43;;;;;;;1.43;0.83;;;20.50;64.40;;;;;;5048016;28;21006;-49
2022/06/08 01:18:34;;;;;;;1.20;0.90;;;20.50;63.80;;;;;;5054947;28;20561;-47
2022/06/08 01:22:01;;;;;;;4.10;1.23;;;20.50;64.20;;;;;;5052457;28;20438;-48
2022/06/08 01:24:53;;;;;;;0.97;0.70;;;20.50;64.30;;;;;;5086095;28;20577;-47
2022/06/08 01:31:56;;;;;;;1.50;0.97;;;20.40;64.20;;;;;;5060262;27;20585;-48
2022/06/08 01:35:18;;;;;;;0.80;0.80;;;20.50;64.30;;;;;;5131101;27;20833;-48
2022/06/08 01:38:08;;;;;;;0.80;0.80;;;20.50;64.30;;;;;;5068287;28;21067;-49
2022/06/08 01:43:57;;;;;;;1.43;0.77;;;20.50;64.10;;;;;;5068778;27;20678;-48
2022/06/08 01:46:43;;;;;;;1.07;0.97;;;20.50;64.10;;;;;;5071454;28;21048;-48
2022/06/08 01:49:34;;;;;;;1.13;1.03;;;20.50;64.20;;;;;;5114234;27;20527;-48
2022/06/08 01:52:22;;;;;;;1.73;0.90;;;20.40;64.00;;;;;;5110919;27;20548;-47
2022/06/08 01:55:10;;;;;;;0.80;0.80;;;20.40;63.90;;;;;;5066358;28;20588;-48
2022/06/08 01:57:58;;;;;;;1.33;0.87;;;20.40;63.90;;;;;;5072694;28;20547;-48
2022/06/08 02:00:45;;;;;;;0.80;0.77;;;20.40;63.70;;;;;;5069830;28;20538;-47
2022/06/08 02:03:31;;;;;;;0.80;0.70;;;20.40;63.90;;;;;;5064289;28;20546;-48
2022/06/08 02:06:24;;;;;;;0.83;0.83;;;20.40;63.90;;;;;;5087724;28;20523;-47
2022/06/08 02:09:13;;;;;;;0.77;0.77;;;20.40;63.70;;;;;;5073251;28;20633;-47
2022/06/08 02:11:58;;;;;;;0.80;0.80;;;20.40;63.60;;;;;;5083068;28;20533;-46
2022/06/08 02:14:49;;;;;;;1.10;1.00;;;20.40;63.40;;;;;;5094709;27;20532;-48
2022/06/08 02:17:37;;;;;;;0.83;0.80;;;20.40;63.30;;;;;;5076051;28;20537;-47
2022/06/08 02:20:22;;;;;;;0.80;0.80;;;20.40;63.40;;;;;;5087349;28;20512;-48
2022/06/08 02:23:09;;;;;;;0.97;0.80;;;20.40;63.50;;;;;;5031581;28;20541;-47
2022/06/08 02:25:55;;;;;;;1.60;0.97;;;20.40;63.30;;;;;;5085999;28;20535;-47
2022/06/08 02:28:41;;;;;;;1.03;0.90;;;20.30;63.30;;;;;;5071792;27;20540;-48
2022/06/08 02:31:23;;;;;;;1.10;1.00;;;20.30;63.20;;;;;;5064948;28;20877;-48
2022/06/08 02:34:31;;;;;;;1.00;0.90;;;20.40;63.30;;;;;;5087227;27;20574;-48
2022/06/08 02:37:23;;;;;;;1.10;1.00;;;20.40;63.30;;;;;;5078536;27;21127;-48
2022/06/08 02:40:10;;;;;;;1.23;1.10;;;20.40;63.20;;;;;;5085540;28;20586;-47
2022/06/08 02:42:57;;;;;;;1.00;0.90;;;20.40;63.20;;;;;;5095549;27;21047;-47
2022/06/08 02:45:40;;;;;;;1.20;1.10;;;20.30;63.20;;;;;;5107965;27;20586;-48
2022/06/08 02:48:21;;;;;;;1.63;1.00;;;20.30;63.10;;;;;;5038095;28;20538;-48
2022/06/08 02:51:02;;;;;;;1.40;1.30;;;20.30;63.10;;;;;;5087244;28;20531;-48
2022/06/08 02:53:56;;;;;;;1.00;0.90;;;20.30;63.30;;;;;;5065222;27;21075;-48
2022/06/08 02:56:46;;;;;;;1.00;0.90;;;20.30;63.30;;;;;;5122726;27;21172;-47
2022/06/08 02:59:34;;;;;;;1.30;1.20;;;20.30;63.30;;;;;;5102451;27;20604;-47
2022/06/08 03:02:19;;;;;;;0.80;0.80;;;20.30;63.30;;;;;;5078537;28;20959;-48
2022/06/08 03:05:05;;;;;;;1.10;0.90;;;20.30;63.20;;;;;;5087421;27;20577;-45
2022/06/08 03:07:49;;;;;;;1.50;1.23;;;20.30;63.20;;;;;;5066821;28;20612;-48
2022/06/08 03:10:38;;;;;;;1.10;1.00;;;20.30;63.40;;;;;;5110618;27;20927;-47
2022/06/08 03:13:23;;;;;;;1.23;1.00;;;20.30;63.30;;;;;;5067905;28;20553;-47
2022/06/08 03:16:08;;;;;;;1.37;1.20;;;20.30;63.20;;;;;;5126242;27;20520;-47
2022/06/08 03:18:50;;;;;;;1.70;0.80;;;20.30;63.30;;;;;;5066514;27;20618;-47
2022/06/08 03:21:30;;;;;;;1.20;1.00;;;20.30;63.10;;;;;;5089517;27;20589;-48
2022/06/08 03:24:12;;;;;;;1.57;0.93;;;20.20;63.10;;;;;;5083364;28;20532;-48
2022/06/08 03:26:56;;;;;;;1.30;1.20;;;20.30;63.30;;;;;;5068890;28;20536;-47
2022/06/08 03:29:39;;;;;;;1.03;0.87;;;20.30;63.30;;;;;;5062858;28;21131;-47
2022/06/08 03:32:20;;;;;;;1.10;1.00;;;20.20;63.30;;;;;;5071252;28;20954;-48
2022/06/08 03:35:00;;;;;;;1.13;0.90;;;20.20;63.10;;;;;;5107801;27;20580;-48
2022/06/08 03:37:40;;;;;;;1.13;0.93;;;20.30;63.20;;;;;;5082138;27;21198;-48
2022/06/08 03:40:21;;;;;;;1.57;1.07;;;20.20;63.10;;;;;;5123511;27;20537;-48
2022/06/08 03:43:03;;;;;;;0.90;0.90;;;20.20;63.10;;;;;;5066150;27;20542;-46
2022/06/08 03:45:45;;;;;;;0.97;0.93;;;20.20;63.10;;;;;;5076334;28;20536;-47
2022/06/08 03:48:27;;;;;;;0.97;0.83;;;20.20;63.10;;;;;;5059575;27;20957;-48
2022/06/08 03:51:09;;;;;;;0.90;0.77;;;20.20;63.20;;;;;;5128442;27;21110;-48
2022/06/08 03:53:55;;;;;;;0.80;0.80;;;20.20;63.20;;;;;;5064689;27;20623;-47
2022/06/08 03:56:38;;;;;;;5.10;1.43;;;20.20;63.40;;;;;;5102520;27;20576;-47
2022/06/08 03:59:19;;;;;;;1.20;0.83;;;20.20;63.10;;;;;;5071294;28;21048;-47
2022/06/08 04:02:01;;;;;;;1.10;1.00;;;20.20;63.10;;;;;;5101995;27;20598;-48
2022/06/08 04:04:42;;;;;;;3.70;1.20;;;20.20;63.20;;;;;;5073880;27;20521;-47
2022/06/08 04:07:23;;;;;;;0.83;0.80;;;20.20;63.30;;;;;;5069020;28;20542;-47
2022/06/08 04:10:04;;;;;;;2.20;0.70;;;20.20;63.00;;;;;;5087464;27;20535;-48
2022/06/08 04:12:46;;;;;;;1.00;0.90;;;20.20;63.20;;;;;;5094864;27;20545;-47
2022/06/08 04:15:43;;;;;;;1.33;0.90;;;20.20;63.20;;;;;;5086053;28;20582;-48
2022/06/08 04:18:32;;;;;;;1.20;0.80;;;20.10;63.00;;;;;;5058288;28;20555;-47
2022/06/08 04:21:15;;;;;;;1.37;1.00;;;20.20;63.10;;;;;;5136162;27;21127;-46
2022/06/08 04:24:01;;;;;;;0.90;0.77;;;20.10;63.10;;;;;;5100485;27;20596;-47
2022/06/08 04:26:43;;;;;;;1.03;0.90;;;20.10;63.00;;;;;;5072186;28;20658;-47
2022/06/08 04:29:33;;;;;;;0.93;0.70;;;20.10;63.00;;;;;;5074947;28;20546;-47
2022/06/08 04:32:16;;;;;;;1.00;0.90;;;20.10;63.10;;;;;;5086737;27;20891;-47
2022/06/08 04:34:59;;;;;;;1.10;0.93;;;20.10;63.10;;;;;;5107509;27;21103;-47
2022/06/08 04:37:39;;;;;;;0.77;0.70;;;20.10;63.10;;;;;;5097765;27;20544;-47
2022/06/08 04:40:21;;;;;;;0.97;0.87;;;20.10;63.30;;;;;;5067392;27;20580;-48
2022/06/08 04:43:02;;;;;;;1.33;0.90;;;20.10;63.40;;;;;;5067351;27;21126;-48
2022/06/08 04:45:42;;;;;;;1.17;0.68;;;20.10;63.20;;;;;;5119275;27;1205833;-47
2022/06/08 04:48:24;;;;;;;0.83;0.80;;;20.10;63.30;;;;;;5037844;27;20617;-47
2022/06/08 04:51:04;;;;;;;1.43;0.80;;;20.10;63.20;;;;;;5087515;27;21112;-47
2022/06/08 04:53:48;;;;;;;0.90;0.90;;;20.10;63.10;;;;;;5062236;28;20564;-48
2022/06/08 04:56:30;;;;;;;0.70;0.67;;;20.10;63.30;;;;;;5096397;27;20525;-47
2022/06/08 04:59:12;;;;;;;0.80;0.80;;;20.10;63.50;;;;;;5077777;28;20533;-49
2022/06/08 05:01:58;;;;;;;1.90;1.23;;;20.10;63.60;;;;;;5082872;27;20525;-48
2022/06/08 05:04:39;;;;;;;0.90;0.90;;;20.10;63.50;;;;;;5127411;27;21074;-48
2022/06/08 05:07:19;;;;;;;0.90;0.77;;;20.10;63.60;;;;;;5104848;27;20544;-47
2022/06/08 05:09:59;;;;;;;0.90;0.80;;;20.10;63.70;;;;;;5107558;27;20525;-48
2022/06/08 05:12:43;;;;;;;1.10;0.87;;;20.10;63.50;;;;;;5095734;27;20569;-48
2022/06/08 05:15:28;;;;;;;0.80;0.80;;;20.10;63.80;;;;;;5124071;27;20525;-47
2022/06/08 05:18:14;;;;;;;1.63;1.07;;;20.10;63.60;;;;;;5082508;27;20616;-46
2022/06/08 05:20:57;;;;;;;1.00;0.77;;;20.10;63.60;;;;;;5087824;27;20519;-47
2022/06/08 05:23:43;;;;;;;1.63;0.60;;;20.10;63.90;;;;;;5051779;27;20556;-46
2022/06/08 05:26:32;;;;;;;0.70;0.67;;;20.10;63.70;;;;;;5067570;28;21056;-47
2022/06/08 05:29:12;;;;;;;1.03;0.93;;;20.10;63.60;;;;;;5123506;27;21064;-49
2022/06/08 05:31:55;;;;;;;1.20;1.10;;;20.10;63.90;;;;;;5099822;27;20536;-46
2022/06/08 05:34:39;;;;;;;1.07;0.97;;;20.00;63.80;;;;;;5086159;28;20578;-47
2022/06/08 05:37:25;;;;;;;1.00;0.87;;;20.00;63.80;;;;;;5099354;27;20880;-48
2022/06/08 05:40:09;;;;;;;1.07;0.87;;;20.00;63.80;;;;;;5126895;27;20524;-48
2022/06/08 05:42:49;;;;;;;0.90;0.90;;;20.00;65.10;;;;;;5052789;28;20547;-48
2022/06/08 05:45:32;;;;;;;1.50;0.97;;;20.00;63.80;;;;;;5088319;27;20589;-47
2022/06/08 05:48:14;;;;;;;1.20;1.10;;;20.00;63.80;;;;;;5084371;27;21126;-48
2022/06/08 05:50:55;;;;;;;1.97;1.10;;;20.00;63.80;;;;;;5087833;27;20582;-48
2022/06/08 05:53:38;;;;;;;2.83;0.83;;;20.00;63.80;;;;;;5031062;27;21081;-47
2022/06/08 05:56:20;;;;;;;0.80;0.80;;;20.00;63.90;;;;;;5087308;28;20577;-47
2022/06/08 05:59:03;;;;;;;1.10;1.00;;;20.00;63.80;;;;;;5070894;27;20544;-48
2022/06/08 06:01:47;;;;;;;1.23;1.00;;;20.00;63.80;;;;;;5092270;27;20537;-47
2022/06/08 06:04:30;;;;;;;1.53;0.97;;;20.00;63.90;;;;;;5130144;27;20316;-47
2022/06/08 06:07:12;;;;;;;1.10;1.00;;;20.00;63.80;;;;;;5075222;27;20575;-47
2022/06/08 06:10:02;;;;;;;1.10;1.00;;;20.00;63.90;;;;;;5084557;27;21078;-47
2022/06/08 06:12:48;;;;;;;1.00;0.90;;;20.00;63.90;;;;;;5074712;27;20588;-47
2022/06/08 06:15:31;;;;;;;0.97;0.70;;;20.00;63.80;;;;;;5066740;27;20658;-48
2022/06/08 06:18:13;;;;;;;1.00;0.90;;;20.00;63.90;;;;;;4994656;28;20596;-46
2022/06/08 06:20:55;;;;;;;1.80;0.80;;;20.00;63.80;;;;;;5085507;28;20524;-47
2022/06/08 06:23:46;;;;;;;1.80;1.00;;;20.00;63.80;;;;;;5058593;27;20556;-47
2022/06/08 06:26:41;;;;;;;1.30;0.87;;;20.00;63.80;;;;;;5067742;28;20524;-47
2022/06/08 06:29:35;;;;;;;1.37;1.10;;;20.00;63.80;;;;;;5112976;27;20282;-47
2022/06/08 06:32:23;;;;;;;1.00;0.90;;;20.00;63.80;;;;;;5067708;27;20531;-46
2022/06/08 06:35:08;;;;;;;1.30;0.90;;;20.00;63.80;;;;;;5086099;27;20644;-48
2022/06/08 06:37:51;;;;;;;1.80;1.33;;;20.00;63.80;;;;;;5095268;27;20625;-47
2022/06/08 06:40:33;;;;;;;1.03;0.93;;;20.00;63.80;;;;;;5149217;27;20607;-47
2022/06/08 06:43:14;;;;;;;1.20;1.10;;;20.00;63.80;;;;;;5083657;27;20544;-47
2022/06/08 06:45:56;;;;;;;1.80;1.10;;;19.90;63.70;;;;;;5086524;28;20566;-47
2022/06/08 06:49:01;;;;;;;1.47;1.23;;;20.00;63.80;;;;;;5126889;27;20931;-48
2022/06/08 06:51:44;;;;;;;1.40;1.00;;;19.90;63.80;;;;;;5080409;28;20634;-47
2022/06/08 06:54:25;;;;;;;1.47;0.97;;;19.90;64.40;;;;;;5120725;27;21075;-50
2022/06/08 06:57:07;;;;;;;2.00;1.13;;;19.90;63.70;;;;;;5094743;27;20908;-47
2022/06/08 06:59:50;;;;;;;1.20;0.90;;;19.90;64.00;;;;;;5078461;28;20536;-47
2022/06/08 07:02:31;;;;;;;3.03;0.93;;;19.90;63.90;;;;;;5097851;27;21028;-48
2022/06/08 07:05:17;;;;;;;1.50;1.00;;;19.90;64.10;;;;;;5087859;27;20512;-47
2022/06/08 07:07:59;;;;;;;1.03;0.93;;;19.90;64.60;;;;;;5090287;27;20544;-47
2022/06/08 07:10:43;;;;;;;0.80;0.73;;;19.90;64.40;;;;;;5062545;27;20976;-46
2022/06/08 07:13:24;;;;;;;1.60;0.87;;;19.90;64.50;;;;;;5062212;28;20598;-72
2022/06/08 07:16:06;;;;;;;0.83;0.70;;;19.90;64.50;;;;;;5125174;27;20525;-48
2022/06/08 07:18:47;;;;;;;0.80;0.80;;;19.90;64.60;;;;;;5055725;27;20541;-47
2022/06/08 07:21:31;;;;;;;1.33;1.17;;;19.90;65.00;;;;;;5106901;27;20514;-46
2022/06/08 07:24:17;;;;;;;1.67;1.00;;;19.90;64.30;;;;;;5085001;28;20593;-48
2022/06/08 07:26:58;;;;;;;2.10;1.30;;;19.90;65.20;;;;;;5119610;27;20535;-46
2022/06/08 07:29:40;;;;;;;1.33;1.23;;;19.90;65.40;;;;;;5154988;27;20941;-48
2022/06/08 07:32:21;;;;;;;1.00;0.90;;;19.90;65.60;;;;;;5078549;27;21073;-49
2022/06/08 07:35:03;;;;;;;1.37;1.27;;;19.90;65.20;;;;;;5128227;27;20578;-47
2022/06/08 07:37:44;;;;;;;1.00;0.93;;;19.90;65.60;;;;;;5089322;27;20686;-47
2022/06/08 07:40:26;;;;;;;1.00;0.80;;;19.90;65.50;;;;;;5127517;27;21079;-48
2022/06/08 07:43:06;;;;;;;1.10;0.70;;;19.90;65.00;;;;;;5038470;27;20966;-48
2022/06/08 07:45:48;;;;;;;1.00;0.90;;;19.90;63.90;;;;;;5109630;22;21070;-46
2022/06/08 07:51:29;;;;;;;1.37;0.80;;;19.90;63.70;;;;;;5087420;28;20964;-48
2022/06/08 07:54:10;;;;;;;1.07;0.80;;;19.90;63.70;;;;;;5132655;27;20681;-49
2022/06/08 07:56:53;;;;;;;0.60;0.60;;;19.90;63.80;;;;;;5104079;27;20544;-49
2022/06/08 07:59:38;;;;;;;1.20;1.10;;;19.90;63.70;;;;;;5066776;27;20579;-48
2022/06/08 08:02:20;;;;;;;0.77;0.70;;;19.90;63.80;;;;;;5087155;27;20567;-49
2022/06/08 08:05:09;;;;;;;1.00;0.73;;;19.90;63.70;;;;;;5126156;27;20670;-48
2022/06/08 08:07:55;;;;;;;1.17;0.90;;;19.90;63.70;;;;;;5062654;28;20558;-49
2022/06/08 08:10:37;;;;;;;1.30;1.10;;;20.00;63.80;;;;;;5082814;27;20540;-49
2022/06/08 08:13:20;;;;;;;2.60;0.80;;;20.00;63.80;;;;;;5041357;28;20547;-49
2022/06/08 08:16:04;;;;;;;0.63;0.60;;;20.00;63.80;;;;;;5106661;27;20964;-49
2022/06/08 08:18:56;;;;;;;0.70;0.60;;;20.00;63.80;;;;;;5055168;27;20554;-49
2022/06/08 08:21:39;;;;;;;1.00;0.90;;;20.00;63.80;;;;;;5084125;27;20528;-49
2022/06/08 08:24:23;;;;;;;0.83;0.83;;;20.00;63.80;;;;;;5082285;28;20640;-48
2022/06/08 08:27:09;;;;;;;0.60;0.60;;;20.00;63.80;;;;;;5072686;28;20988;-49
2022/06/08 08:29:59;;;;;;;1.60;1.17;;;20.00;63.80;;;;;;4267557;27;25490847;-48
2022/06/08 08:32:45;;;;;;;2.87;1.10;;;20.00;63.90;;;;;;5103527;27;20569;-49
2022/06/08 08:35:28;;;;;;;1.20;0.90;;;19.90;63.70;;;;;;5108293;27;20576;-49
2022/06/08 08:38:12;;;;;;;1.80;1.00;;;20.00;63.80;;;;;;5040631;27;20580;-49
2022/06/08 08:40:56;;;;;;;1.00;0.80;;;20.00;63.80;;;;;;5129187;27;20545;-48
2022/06/08 08:43:40;;;;;;;1.30;0.80;;;20.00;63.80;;;;;;5071219;27;20525;-48
2022/06/08 08:46:34;;;;;;;1.17;1.03;;;20.00;63.80;;;;;;5109441;27;20558;-49
2022/06/08 08:49:20;;;;;;;1.47;0.97;;;20.00;63.90;;;;;;5077129;27;20971;-48
2022/06/08 08:52:15;;;;;;;1.47;1.07;;;20.00;63.80;;;;;;5090797;27;20561;-49
2022/06/08 08:55:17;;;;;;;2.20;1.20;;;20.00;63.80;;;;;;5105125;27;20573;-48
2022/06/08 08:58:31;;;;;;;1.73;1.17;;;20.00;63.80;;;;;;5097900;27;20536;-48
2022/06/08 09:01:39;;;;;;;1.90;1.07;;;20.00;63.80;;;;;;5128484;27;21058;-49
2022/06/08 09:04:30;;;;;;;1.70;1.00;;;20.00;63.80;;;;;;5087717;27;21257;-48
2022/06/08 09:07:21;;;;;;;1.97;1.00;;;20.00;63.80;;;;;;5070454;28;21086;-48
2022/06/08 09:10:34;;;;;;;2.10;1.27;;;20.00;63.80;;;;;;5105598;27;20553;-49
2022/06/08 09:13:44;;;;;;;1.97;1.00;;;20.00;63.80;;;;;;5105746;27;20691;-48
2022/06/08 09:16:37;;;;;;;1.50;1.10;;;20.00;63.80;;;;;;5105260;27;20588;-49
2022/06/08 09:19:30;;;;;;;3.33;1.50;;;20.00;63.80;;;;;;5091091;27;20552;-49
2022/06/08 09:22:26;;;;;;;1.83;1.10;;;20.00;63.80;;;;;;5134468;27;20595;-49
2022/06/08 09:25:27;;;;;;;1.40;1.10;;;20.00;63.80;;;;;;5073971;28;20503;-48
2022/06/08 09:28:31;;;;;;;2.07;0.90;;;20.00;63.80;;;;;;5087492;27;20899;-48
2022/06/08 09:31:30;;;;;;;1.53;1.27;;;20.00;63.80;;;;;;5087460;27;20522;-48
2022/06/08 09:34:32;;;;;;;1.60;1.33;;;20.00;63.80;;;;;;5088037;27;20519;-48
2022/06/08 09:37:24;;;;;;;2.17;1.13;;;20.00;63.80;;;;;;5117755;27;20292;-48
2022/06/08 09:40:36;;;;;;;1.20;0.90;;;20.00;63.90;;;;;;5108418;27;20545;-48
2022/06/08 09:43:56;;;;;;;1.70;1.13;;;20.00;63.80;;;;;;5069938;27;20553;-48
2022/06/08 09:53:37;;;;;;;1.70;0.80;;;19.90;63.70;;;;;;5098134;27;20563;-49
2022/06/08 09:56:44;;;;;;;1.37;1.00;;;19.90;63.70;;;;;;5107811;27;20539;-48
2022/06/08 09:59:45;;;;;;;2.00;1.20;;;19.90;63.70;;;;;;5146004;27;21287;-48
2022/06/08 10:02:36;;;;;;;1.43;1.33;;;19.90;63.70;;;;;;5076748;27;20548;-47
2022/06/08 10:05:26;;;;;;;1.53;1.37;;;19.90;63.70;;;;;;5107771;27;20584;-49
2022/06/08 10:08:21;;;;;;;1.93;1.07;;;19.90;63.80;;;;;;5088114;27;21149;-48
2022/06/08 10:11:34;;;;;;;1.10;1.00;;;19.90;63.80;;;;;;5105010;27;20686;-48
2022/06/08 10:14:24;;;;;;;1.23;1.13;;;19.90;63.80;;;;;;5125891;27;20549;-48
2022/06/08 10:17:14;;;;;;;2.70;1.10;;;19.90;63.70;;;;;;5139448;27;20592;-49
2022/06/08 10:20:03;;;;;;;2.70;1.10;;;19.90;63.70;;;;;;5147548;27;20460;-48
2022/06/08 10:22:50;;;;;;;1.50;1.27;;;19.90;63.70;;;;;;5068605;27;1934054;-48
2022/06/08 10:25:42;;;;;;;2.47;1.30;;;19.90;63.80;;;;;;5130166;27;20490;-49
2022/06/08 10:28:29;;;;;;;1.50;1.00;;;19.90;63.70;;;;;;5081050;28;20575;-48
2022/06/08 10:31:22;;;;;;;1.33;1.13;;;19.90;63.70;;;;;;5130952;27;20275;-49
2022/06/08 10:34:12;;;;;;;1.43;1.20;;;19.90;63.70;;;;;;5107973;27;20543;-48
2022/06/08 10:37:04;;;;;;;2.20;1.10;;;19.90;63.70;;;;;;5147914;27;21114;-48
2022/06/08 10:39:50;;;;;;;1.40;1.30;;;19.90;63.70;;;;;;5128271;27;20564;-49
2022/06/08 10:42:40;;;;;;;1.60;1.40;;;19.90;63.80;;;;;;5112747;27;20539;-48
2022/06/08 10:45:37;;;;;;;1.30;1.20;;;19.90;63.90;;;;;;5148937;27;20534;-49
2022/06/08 10:48:33;;;;;;;1.53;1.20;;;19.90;63.70;;;;;;5043282;28;20638;-48
2022/06/08 10:51:44;;;;;;;1.17;1.00;;;19.80;63.60;;;;;;5141088;27;20314;-49
2022/06/08 10:54:54;;;;;;;2.03;1.10;;;19.90;63.70;;;;;;5102616;27;20585;-48
2022/06/08 10:58:03;;;;;;;3.13;1.13;;;19.90;63.70;;;;;;5072315;27;20563;-48
2022/06/08 11:00:54;;;;;;;1.10;1.00;;;19.90;63.70;;;;;;5106155;27;20542;-49
2022/06/08 11:03:59;;;;;;;1.77;1.40;;;19.90;63.80;;;;;;5084713;27;20292;-49
2022/06/08 11:07:00;;;;;;;1.97;1.33;;;19.90;63.80;;;;;;5122399;27;20517;-48
2022/06/08 11:10:03;;;;;;;1.40;1.30;;;19.90;63.90;;;;;;5057244;28;20615;-48
2022/06/08 11:12:55;;;;;;;1.20;1.10;;;19.90;63.90;;;;;;5073778;27;20627;-49
2022/06/08 11:15:43;;;;;;;2.83;0.93;;;19.90;64.20;;;;;;5075475;28;20273;-49
2022/06/08 11:18:33;;;;;;;1.30;0.90;;;19.80;64.20;;;;;;5082828;27;20549;-48
2022/06/08 11:21:38;;;;;;;1.30;1.10;;;19.90;64.30;;;;;;5087696;28;20508;-49
2022/06/08 11:24:28;;;;;;;2.87;1.27;;;19.90;64.40;;;;;;5087595;27;20927;-49
2022/06/08 11:27:31;;;;;;;1.13;1.03;;;19.90;64.30;;;;;;5070647;28;21055;-49
2022/06/08 11:30:50;;;;;;;1.33;1.23;;;19.80;64.50;;;;;;5083745;28;20536;-49
2022/06/08 11:33:51;;;;;;;1.27;1.00;;;19.80;64.30;;;;;;5036928;28;20638;-48
2022/06/08 11:37:12;;;;;;;2.10;1.40;;;19.80;64.60;;;;;;5054770;28;20578;-49
2022/06/08 11:40:25;;;;;;;1.97;1.10;;;19.90;64.20;;;;;;5132867;27;20504;-49
2022/06/08 11:44:28;;;;;;;2.00;1.40;;;19.90;65.30;;;;;;5109768;27;20914;-47
2022/06/08 12:01:14;;;;;;;3.23;1.10;;;19.90;66.10;;;;;;5128331;27;20926;-48
2022/06/08 12:25:02;;;;;;;4.13;1.10;;;19.90;66.90;;;;;;5098353;27;20391;-49
2022/06/08 12:29:00;;;;;;;1.17;0.93;;;19.80;66.80;;;;;;5094103;28;20471;-48
2022/06/08 12:32:22;;;;;;;2.50;1.60;;;19.80;66.40;;;;;;5075486;27;20557;-48
2022/06/08 12:35:36;;;;;;;2.27;0.93;;;19.80;66.40;;;;;;5128978;27;20527;-49
2022/06/08 12:39:28;;;;;;;2.23;0.90;;;19.80;66.70;;;;;;5061183;28;20847;-47
2022/06/08 12:42:37;;;;;;;2.23;1.37;;;19.80;66.40;;;;;;5096316;27;20544;-48
2022/06/08 12:45:39;;;;;;;1.67;1.20;;;19.80;66.30;;;;;;5136259;27;20480;-48
2022/06/08 12:50:14;;;;;;;1.10;1.00;;;19.90;66.30;;;;;;4268318;27;25008210;-50
2022/06/08 12:53:46;;;;;;;2.60;1.13;;;19.80;66.50;;;;;;5059685;27;20544;-49
2022/06/08 12:56:57;;;;;;;1.87;1.20;;;19.80;66.40;;;;;;5085615;27;20531;-49
2022/06/08 13:00:10;;;;;;;1.40;1.10;;;19.80;66.40;;;;;;5123492;27;20589;-49
2022/06/08 13:02:57;;;;;;;1.50;1.03;;;19.80;66.50;;;;;;5095032;27;21139;-49
2022/06/08 13:06:06;;;;;;;2.47;1.17;;;19.80;66.40;;;;;;5128392;27;20476;-48
2022/06/08 13:10:18;;;;;;;4.37;1.00;;;19.80;66.10;;;;;;5139518;27;20534;-49
2022/06/08 13:13:55;;;;;;;1.53;1.10;;;19.80;67.20;;;;;;4201786;27;25507071;-47
2022/06/08 13:16:53;;;;;;;4.60;1.53;;;19.80;66.30;;;;;;5105020;27;20521;-48
2022/06/08 13:38:38;;;;;;;1.77;1.30;;;19.90;66.80;;;;;;4789301;27;10244151;-48
2022/06/08 13:41:20;;;;;;;1.30;1.13;;;19.80;67.20;;;;;;5085770;27;21115;-48
2022/06/08 13:48:22;;;;;;;1.10;0.80;;;19.90;66.60;;;;;;5097378;22;1286575;-47
2022/06/08 13:51:32;;;;;;;1.33;1.03;;;19.90;66.70;;;;;;5128611;27;20542;-46
2022/06/08 13:55:22;;;;;;;2.90;0.87;;;19.80;66.80;;;;;;5077457;27;20511;-48
2022/06/08 13:58:57;;;;;;;1.20;0.80;;;19.90;66.40;;;;;;4864415;29;20526;-48
2022/06/08 14:01:38;;;;;;;1.23;1.00;;;19.90;66.60;;;;;;5128789;27;20566;-47
2022/06/08 14:17:49;;;;;;;;;;;;;;;;;;;;;
2022/06/08 14:44:49;;;;;;;2.33;0.90;;;19.90;66.50;;;;;;5084439;27;20519;-46
2022/06/08 14:48:06;;;;;;;1.73;1.50;;;19.90;66.60;;;;;;5087351;27;20472;-47
2022/06/08 14:51:00;;;;;;;2.13;0.90;;;19.80;71.50;;;;;;5113183;27;2176017;-47
2022/06/08 14:53:44;;;;;;;1.47;1.13;;;19.80;70.90;;;;;;5082669;27;20976;-48
2022/06/08 14:56:29;;;;;;;1.30;1.20;;;19.80;70.20;;;;;;5107990;27;20499;-48
2022/06/08 14:59:26;;;;;;;2.27;1.47;;;19.80;69.70;;;;;;5073760;27;20577;-47
2022/06/08 15:02:19;;;;;;;1.77;1.10;;;19.90;69.50;;;;;;5083637;27;20987;-46
2022/06/08 15:05:50;;;;;;;2.50;1.23;;;19.80;69.30;;;;;;5071765;27;20577;-48
2022/06/08 15:09:16;;;;;;;1.83;1.50;;;19.90;69.30;;;;;;5070482;28;20552;-47
2022/06/08 15:16:37;;;;;;;1.03;0.90;;;19.90;69.70;;;;;;4262666;27;25398170;-47
2022/06/08 15:20:59;;;;;;;0.97;0.90;;;19.90;69.90;;;;;;5025452;28;21043;-48
2022/06/08 15:34:47;;;;;;;2.03;0.90;;;19.90;69.60;;;;;;5117316;27;20536;-48
2022/06/08 15:37:43;;;;;;;1.67;0.70;;;19.90;69.40;;;;;;5117854;27;20561;-48
2022/06/08 15:40:47;;;;;;;1.07;0.77;;;19.90;69.40;;;;;;5086255;27;20568;-47
2022/06/08 15:44:14;;;;;;;0.80;0.63;;;19.90;69.10;;;;;;4817042;27;7974533;-47
2022/06/08 15:48:06;;;;;;;1.10;0.87;;;19.90;69.30;;;;;;5103780;27;20544;-48
2022/06/08 15:55:26;;;;;;;3.90;2.33;;;19.90;69.10;;;;;;5089088;27;20533;-46
2022/06/08 15:59:42;;;;;;;1.43;1.10;;;19.90;69.00;;;;;;4435245;27;19592967;-47
2022/06/08 16:03:35;;;;;;;2.10;1.50;;;19.90;70.40;;;;;;5069654;27;20963;-47
2022/06/08 16:06:57;;;;;;;2.20;1.23;;;19.90;71.70;;;;;;4275742;27;25052710;-46
2022/06/08 16:09:40;;;;;;;2.30;1.57;;;19.90;71.50;;;;;;5079550;27;21095;-46
2022/06/08 16:12:23;;;;;;;1.10;1.00;;;19.90;70.90;;;;;;5080509;27;20632;-49
2022/06/08 16:15:41;;;;;;;1.27;0.90;;;19.90;70.80;;;;;;5134616;27;20813;-48
2022/06/08 16:18:44;;;;;;;2.60;1.33;;;19.90;70.10;;;;;;5107487;27;21068;-47
2022/06/08 16:22:37;;;;;;;0.97;0.87;;;19.80;70.30;;;;;;5130498;27;20277;-49
2022/06/08 16:25:33;;;;;;;0.97;0.70;;;19.90;70.20;;;;;;5127138;27;20597;-46
2022/06/08 16:28:17;;;;;;;1.00;0.90;;;19.90;70.40;;;;;;5085801;27;20545;-47
2022/06/08 16:31:51;;;;;;;1.20;0.97;;;19.90;70.60;;;;;;5077045;27;20533;-47
2022/06/08 16:45:27;;;;;;;1.70;1.27;;;19.90;70.10;;;;;;5058507;28;20592;-47
2022/06/08 16:48:50;;;;;;;1.67;1.00;;;19.90;69.80;;;;;;5068114;27;20560;-48
2022/06/08 16:52:29;;;;;;;1.80;1.20;;;19.90;69.70;;;;;;5052601;27;21177;-48
2022/06/08 16:55:22;;;;;;;1.30;0.90;;;19.80;69.40;;;;;;5127122;27;20518;-49
2022/06/08 17:01:25;;;;;;;1.20;1.10;;;19.90;69.40;;;;;;5125832;27;20630;-48
2022/06/08 17:04:24;;;;;;;1.97;1.30;;;19.90;69.20;;;;;;5110549;27;20274;-47
2022/06/08 17:07:24;;;;;;;2.40;1.40;;;19.90;69.30;;;;;;5114591;27;20599;-47
2022/06/08 17:25:08;;;;;;;;;;;;;;;;;;;;;
2022/06/08 17:57:09;;;;;;;1.60;0.80;;;19.90;68.50;;;;;;5200714;27;20783;-46
2022/06/08 18:19:39;;;;;;;1.87;1.33;;;19.90;68.40;;;;;;4961656;28;20479;-47
2022/06/08 18:22:46;;;;;;;2.00;1.23;;;19.80;68.20;;;;;;5068696;28;20544;-47
2022/06/08 18:25:28;;;;;;;1.27;0.90;;;19.80;68.20;;;;;;5088433;28;20942;-49
2022/06/08 18:28:13;;;;;;;1.33;1.13;;;19.90;68.30;;;;;;5049827;27;20597;-73
2022/06/08 18:30:54;;;;;;;2.27;1.07;;;19.90;68.10;;;;;;5086767;28;20535;-47
2022/06/08 18:33:36;;;;;;;1.70;1.27;;;19.90;68.10;;;;;;5039041;28;20546;-47